sensor_id;sensor_type;location;lat;lon;timestamp;P1;durP1;ratioP1;P2;durP2;ratioP2
53309;SDS011;39197;53.200;5.792;2022-09-09T00:06:43;14.75;;;9.05;;
53309;SDS011;39197;53.200;5.792;2022-09-09T00:09:16;11.77;;;9.05;;
53309;SDS011;39197;53.200;5.792;2022-09-09T00:11:45;12.80;;;9.50;;
53309;SDS011;39197;53.200;5.792;2022-09-09T00:17:06;10.63;;;8.07;;
53309;SDS011;39197;53.200;5.792;2022-09-09T00:19:51;13.90;;;8.55;;
53309;SDS011;39197;53.200;5.792;2022-09-09T00:22:24;13.75;;;8.70;;
53309;SDS011;39197;53.200;5.792;2022-09-09T00:24:53;10.63;;;8.65;;
53309;SDS011;39197;53.200;5.792;2022-09-09T00:29:57;10.77;;;8.65;;
53309;SDS011;39197;53.200;5.792;2022-09-09T00:32:37;16.08;;;9.73;;
53309;SDS011;39197;53.200;5.792;2022-09-09T00:35:10;17.83;;;9.23;;
53309;SDS011;39197;53.200;5.792;2022-09-09T00:37:43;11.63;;;8.30;;
53309;SDS011;39197;53.200;5.792;2022-09-09T00:40:22;14.02;;;9.93;;
53309;SDS011;39197;53.200;5.792;2022-09-09T00:45:48;14.13;;;10.05;;
53309;SDS011;39197;53.200;5.792;2022-09-09T00:48:27;14.82;;;10.63;;
53309;SDS011;39197;53.200;5.792;2022-09-09T00:51:09;15.07;;;9.53;;
53309;SDS011;39197;53.200;5.792;2022-09-09T00:56:41;12.07;;;10.15;;
53309;SDS011;39197;53.200;5.792;2022-09-09T00:59:16;12.15;;;10.43;;
53309;SDS011;39197;53.200;5.792;2022-09-09T01:02:39;13.13;;;9.80;;
53309;SDS011;39197;53.200;5.792;2022-09-09T01:05:13;16.75;;;13.70;;
53309;SDS011;39197;53.200;5.792;2022-09-09T01:07:46;15.50;;;11.30;;
53309;SDS011;39197;53.200;5.792;2022-09-09T01:10:26;15.57;;;11.70;;
53309;SDS011;39197;53.200;5.792;2022-09-09T01:13:01;11.60;;;9.52;;
53309;SDS011;39197;53.200;5.792;2022-09-09T01:15:33;10.70;;;9.60;;
53309;SDS011;39197;53.200;5.792;2022-09-09T01:18:04;13.20;;;11.45;;
53309;SDS011;39197;53.200;5.792;2022-09-09T01:20:39;11.75;;;10.52;;
53309;SDS011;39197;53.200;5.792;2022-09-09T01:29:17;11.75;;;9.75;;
53309;SDS011;39197;53.200;5.792;2022-09-09T01:31:56;12.43;;;9.45;;
53309;SDS011;39197;53.200;5.792;2022-09-09T01:34:24;15.07;;;10.48;;
53309;SDS011;39197;53.200;5.792;2022-09-09T01:37:02;14.65;;;10.20;;
53309;SDS011;39197;53.200;5.792;2022-09-09T01:39:31;15.27;;;10.40;;
53309;SDS011;39197;53.200;5.792;2022-09-09T01:41:58;11.55;;;9.50;;
53309;SDS011;39197;53.200;5.792;2022-09-09T01:44:24;13.70;;;10.38;;
53309;SDS011;39197;53.200;5.792;2022-09-09T01:46:51;11.73;;;10.48;;
53309;SDS011;39197;53.200;5.792;2022-09-09T01:49:17;17.38;;;10.55;;
53309;SDS011;39197;53.200;5.792;2022-09-09T01:51:43;10.60;;;9.52;;
53309;SDS011;39197;53.200;5.792;2022-09-09T01:54:14;15.10;;;10.90;;
53309;SDS011;39197;53.200;5.792;2022-09-09T01:57:00;15.70;;;11.40;;
53309;SDS011;39197;53.200;5.792;2022-09-09T02:02:18;13.98;;;11.38;;
53309;SDS011;39197;53.200;5.792;2022-09-09T02:07:20;13.50;;;12.07;;
53309;SDS011;39197;53.200;5.792;2022-09-09T02:10:09;14.77;;;12.13;;
53309;SDS011;39197;53.200;5.792;2022-09-09T02:12:36;16.27;;;12.73;;
53309;SDS011;39197;53.200;5.792;2022-09-09T02:15:10;13.70;;;11.95;;
53309;SDS011;39197;53.200;5.792;2022-09-09T02:17:49;16.92;;;12.88;;
53309;SDS011;39197;53.200;5.792;2022-09-09T02:20:17;18.27;;;12.15;;
53309;SDS011;39197;53.200;5.792;2022-09-09T02:22:44;18.42;;;12.68;;
53309;SDS011;39197;53.200;5.792;2022-09-09T02:25:15;13.57;;;12.13;;
53309;SDS011;39197;53.200;5.792;2022-09-09T02:27:44;15.18;;;13.32;;
53309;SDS011;39197;53.200;5.792;2022-09-09T02:30:12;12.15;;;11.00;;
53309;SDS011;39197;53.200;5.792;2022-09-09T02:32:40;15.60;;;13.43;;
53309;SDS011;39197;53.200;5.792;2022-09-09T02:35:15;20.13;;;13.98;;
53309;SDS011;39197;53.200;5.792;2022-09-09T02:37:45;14.20;;;12.63;;
53309;SDS011;39197;53.200;5.792;2022-09-09T02:40:15;14.80;;;13.30;;
53309;SDS011;39197;53.200;5.792;2022-09-09T02:42:41;15.80;;;13.20;;
53309;SDS011;39197;53.200;5.792;2022-09-09T02:45:09;15.52;;;12.60;;
53309;SDS011;39197;53.200;5.792;2022-09-09T02:48:20;17.10;;;13.65;;
53309;SDS011;39197;53.200;5.792;2022-09-09T02:53:09;15.05;;;12.38;;
53309;SDS011;39197;53.200;5.792;2022-09-09T02:55:41;14.55;;;12.82;;
53309;SDS011;39197;53.200;5.792;2022-09-09T02:58:11;15.15;;;13.15;;
53309;SDS011;39197;53.200;5.792;2022-09-09T03:00:42;18.63;;;13.60;;
53309;SDS011;39197;53.200;5.792;2022-09-09T03:03:10;18.13;;;14.20;;
53309;SDS011;39197;53.200;5.792;2022-09-09T03:05:35;15.80;;;14.15;;
53309;SDS011;39197;53.200;5.792;2022-09-09T03:08:02;14.10;;;12.63;;
53309;SDS011;39197;53.200;5.792;2022-09-09T03:10:29;18.83;;;14.07;;
53309;SDS011;39197;53.200;5.792;2022-09-09T03:12:54;14.85;;;13.45;;
53309;SDS011;39197;53.200;5.792;2022-09-09T03:15:20;20.52;;;13.60;;
53309;SDS011;39197;53.200;5.792;2022-09-09T03:17:46;22.27;;;14.32;;
53309;SDS011;39197;53.200;5.792;2022-09-09T03:20:12;14.75;;;13.30;;
53309;SDS011;39197;53.200;5.792;2022-09-09T03:22:37;14.05;;;12.60;;
53309;SDS011;39197;53.200;5.792;2022-09-09T03:25:03;21.58;;;14.27;;
53309;SDS011;39197;53.200;5.792;2022-09-09T03:27:30;13.57;;;11.57;;
53309;SDS011;39197;53.200;5.792;2022-09-09T03:29:56;13.38;;;11.25;;
53309;SDS011;39197;53.200;5.792;2022-09-09T03:32:22;19.70;;;14.18;;
53309;SDS011;39197;53.200;5.792;2022-09-09T03:34:51;15.65;;;11.73;;
53309;SDS011;39197;53.200;5.792;2022-09-09T03:37:17;18.67;;;12.75;;
53309;SDS011;39197;53.200;5.792;2022-09-09T03:39:43;15.43;;;12.05;;
53309;SDS011;39197;53.200;5.792;2022-09-09T03:42:11;17.60;;;12.48;;
53309;SDS011;39197;53.200;5.792;2022-09-09T03:44:39;12.40;;;10.07;;
53309;SDS011;39197;53.200;5.792;2022-09-09T03:47:07;13.38;;;11.02;;
53309;SDS011;39197;53.200;5.792;2022-09-09T03:49:32;13.82;;;11.48;;
53309;SDS011;39197;53.200;5.792;2022-09-09T03:51:58;12.18;;;10.88;;
53309;SDS011;39197;53.200;5.792;2022-09-09T03:54:24;13.52;;;10.73;;
53309;SDS011;39197;53.200;5.792;2022-09-09T03:56:50;15.30;;;11.45;;
53309;SDS011;39197;53.200;5.792;2022-09-09T03:59:16;11.98;;;10.02;;
53309;SDS011;39197;53.200;5.792;2022-09-09T04:01:41;11.77;;;10.70;;
53309;SDS011;39197;53.200;5.792;2022-09-09T04:04:07;15.63;;;11.00;;
53309;SDS011;39197;53.200;5.792;2022-09-09T04:06:33;12.98;;;10.98;;
53309;SDS011;39197;53.200;5.792;2022-09-09T04:08:59;11.13;;;9.95;;
53309;SDS011;39197;53.200;5.792;2022-09-09T04:11:27;12.50;;;10.88;;
53309;SDS011;39197;53.200;5.792;2022-09-09T04:13:52;11.50;;;10.38;;
53309;SDS011;39197;53.200;5.792;2022-09-09T04:16:18;13.68;;;11.00;;
53309;SDS011;39197;53.200;5.792;2022-09-09T04:18:45;13.40;;;10.27;;
53309;SDS011;39197;53.200;5.792;2022-09-09T04:21:11;10.75;;;9.65;;
53309;SDS011;39197;53.200;5.792;2022-09-09T04:23:37;15.45;;;9.77;;
53309;SDS011;39197;53.200;5.792;2022-09-09T04:26:03;11.75;;;9.35;;
53309;SDS011;39197;53.200;5.792;2022-09-09T04:28:30;10.55;;;8.38;;
53309;SDS011;39197;53.200;5.792;2022-09-09T04:31:03;11.10;;;8.35;;
53309;SDS011;39197;53.200;5.792;2022-09-09T04:33:34;12.30;;;8.95;;
53309;SDS011;39197;53.200;5.792;2022-09-09T04:36:00;10.65;;;8.50;;
53309;SDS011;39197;53.200;5.792;2022-09-09T04:38:26;11.38;;;9.15;;
53309;SDS011;39197;53.200;5.792;2022-09-09T04:40:51;10.25;;;8.35;;
53309;SDS011;39197;53.200;5.792;2022-09-09T04:43:18;10.77;;;8.10;;
53309;SDS011;39197;53.200;5.792;2022-09-09T04:45:48;12.45;;;8.25;;
53309;SDS011;39197;53.200;5.792;2022-09-09T04:48:16;9.02;;;7.95;;
53309;SDS011;39197;53.200;5.792;2022-09-09T04:50:42;10.13;;;8.13;;
53309;SDS011;39197;53.200;5.792;2022-09-09T04:53:08;9.68;;;8.10;;
53309;SDS011;39197;53.200;5.792;2022-09-09T04:55:34;8.80;;;7.88;;
53309;SDS011;39197;53.200;5.792;2022-09-09T04:58:03;14.25;;;8.77;;
53309;SDS011;39197;53.200;5.792;2022-09-09T05:00:30;9.85;;;8.82;;
53309;SDS011;39197;53.200;5.792;2022-09-09T05:02:56;11.32;;;8.13;;
53309;SDS011;39197;53.200;5.792;2022-09-09T05:05:22;14.80;;;8.43;;
53309;SDS011;39197;53.200;5.792;2022-09-09T05:07:47;11.77;;;7.82;;
53309;SDS011;39197;53.200;5.792;2022-09-09T05:10:13;12.60;;;9.02;;
53309;SDS011;39197;53.200;5.792;2022-09-09T05:12:40;16.52;;;9.10;;
53309;SDS011;39197;53.200;5.792;2022-09-09T05:15:05;13.38;;;8.43;;
53309;SDS011;39197;53.200;5.792;2022-09-09T05:17:32;12.70;;;8.32;;
53309;SDS011;39197;53.200;5.792;2022-09-09T05:19:58;14.45;;;8.85;;
53309;SDS011;39197;53.200;5.792;2022-09-09T05:22:24;11.75;;;8.60;;
53309;SDS011;39197;53.200;5.792;2022-09-09T05:24:50;10.50;;;8.32;;
53309;SDS011;39197;53.200;5.792;2022-09-09T05:27:16;12.68;;;8.40;;
53309;SDS011;39197;53.200;5.792;2022-09-09T05:29:44;9.65;;;8.65;;
53309;SDS011;39197;53.200;5.792;2022-09-09T05:32:11;13.55;;;8.30;;
53309;SDS011;39197;53.200;5.792;2022-09-09T05:34:38;13.27;;;9.10;;
53309;SDS011;39197;53.200;5.792;2022-09-09T05:37:04;11.50;;;9.13;;
53309;SDS011;39197;53.200;5.792;2022-09-09T05:39:30;13.05;;;9.32;;
53309;SDS011;39197;53.200;5.792;2022-09-09T05:41:55;13.00;;;9.73;;
53309;SDS011;39197;53.200;5.792;2022-09-09T05:44:21;14.07;;;8.73;;
53309;SDS011;39197;53.200;5.792;2022-09-09T05:46:48;11.40;;;8.25;;
53309;SDS011;39197;53.200;5.792;2022-09-09T05:49:14;14.90;;;10.88;;
53309;SDS011;39197;53.200;5.792;2022-09-09T05:51:40;11.60;;;10.07;;
53309;SDS011;39197;53.200;5.792;2022-09-09T05:54:08;13.98;;;11.27;;
53309;SDS011;39197;53.200;5.792;2022-09-09T05:56:33;15.07;;;10.95;;
53309;SDS011;39197;53.200;5.792;2022-09-09T05:58:59;12.98;;;11.43;;
53309;SDS011;39197;53.200;5.792;2022-09-09T06:01:30;13.73;;;12.13;;
53309;SDS011;39197;53.200;5.792;2022-09-09T06:03:58;13.05;;;11.63;;
53309;SDS011;39197;53.200;5.792;2022-09-09T06:06:25;14.30;;;10.85;;
53309;SDS011;39197;53.200;5.792;2022-09-09T06:08:52;16.13;;;12.25;;
53309;SDS011;39197;53.200;5.792;2022-09-09T06:13:52;15.00;;;12.07;;
53309;SDS011;39197;53.200;5.792;2022-09-09T06:16:20;13.23;;;11.85;;
53309;SDS011;39197;53.200;5.792;2022-09-09T06:18:50;11.85;;;10.40;;
53309;SDS011;39197;53.200;5.792;2022-09-09T06:23:47;13.68;;;12.32;;
53309;SDS011;39197;53.200;5.792;2022-09-09T06:26:14;17.48;;;11.75;;
53309;SDS011;39197;53.200;5.792;2022-09-09T06:28:44;13.95;;;10.98;;
53309;SDS011;39197;53.200;5.792;2022-09-09T06:31:13;11.25;;;9.90;;
53309;SDS011;39197;53.200;5.792;2022-09-09T06:33:41;12.50;;;11.15;;
53309;SDS011;39197;53.200;5.792;2022-09-09T06:36:09;15.57;;;11.48;;
53309;SDS011;39197;53.200;5.792;2022-09-09T06:38:40;13.68;;;10.02;;
53309;SDS011;39197;53.200;5.792;2022-09-09T06:41:09;11.18;;;9.85;;
53309;SDS011;39197;53.200;5.792;2022-09-09T06:43:37;12.82;;;10.25;;
53309;SDS011;39197;53.200;5.792;2022-09-09T06:46:06;12.00;;;9.80;;
53309;SDS011;39197;53.200;5.792;2022-09-09T06:48:38;13.90;;;10.55;;
53309;SDS011;39197;53.200;5.792;2022-09-09T06:51:08;12.55;;;10.48;;
53309;SDS011;39197;53.200;5.792;2022-09-09T06:53:37;11.82;;;10.43;;
53309;SDS011;39197;53.200;5.792;2022-09-09T06:58:36;12.30;;;10.40;;
53309;SDS011;39197;53.200;5.792;2022-09-09T07:01:03;10.90;;;9.80;;
53309;SDS011;39197;53.200;5.792;2022-09-09T07:03:30;11.38;;;9.23;;
53309;SDS011;39197;53.200;5.792;2022-09-09T07:05:56;13.23;;;9.65;;
53309;SDS011;39197;53.200;5.792;2022-09-09T07:08:22;10.43;;;9.18;;
53309;SDS011;39197;53.200;5.792;2022-09-09T07:10:50;10.38;;;9.07;;
53309;SDS011;39197;53.200;5.792;2022-09-09T07:13:19;11.77;;;8.68;;
53309;SDS011;39197;53.200;5.792;2022-09-09T07:15:50;11.40;;;8.50;;
53309;SDS011;39197;53.200;5.792;2022-09-09T07:18:16;13.20;;;8.73;;
53309;SDS011;39197;53.200;5.792;2022-09-09T07:20:42;10.80;;;8.27;;
53309;SDS011;39197;53.200;5.792;2022-09-09T07:23:17;10.15;;;8.40;;
53309;SDS011;39197;53.200;5.792;2022-09-09T07:25:45;9.18;;;7.93;;
53309;SDS011;39197;53.200;5.792;2022-09-09T07:28:12;8.43;;;7.05;;
53309;SDS011;39197;53.200;5.792;2022-09-09T07:30:38;11.52;;;9.00;;
53309;SDS011;39197;53.200;5.792;2022-09-09T07:33:05;8.77;;;7.38;;
53309;SDS011;39197;53.200;5.792;2022-09-09T07:35:30;9.13;;;8.13;;
53309;SDS011;39197;53.200;5.792;2022-09-09T07:37:56;10.95;;;7.15;;
53309;SDS011;39197;53.200;5.792;2022-09-09T07:40:22;9.60;;;8.18;;
53309;SDS011;39197;53.200;5.792;2022-09-09T07:42:48;11.77;;;8.15;;
53309;SDS011;39197;53.200;5.792;2022-09-09T07:45:14;12.35;;;8.13;;
53309;SDS011;39197;53.200;5.792;2022-09-09T07:47:40;12.00;;;7.18;;
53309;SDS011;39197;53.200;5.792;2022-09-09T07:50:07;8.43;;;6.50;;
53309;SDS011;39197;53.200;5.792;2022-09-09T07:52:34;6.80;;;6.07;;
53309;SDS011;39197;53.200;5.792;2022-09-09T07:55:00;7.32;;;5.90;;
53309;SDS011;39197;53.200;5.792;2022-09-09T07:57:28;8.65;;;5.53;;
53309;SDS011;39197;53.200;5.792;2022-09-09T07:59:55;12.38;;;6.30;;
53309;SDS011;39197;53.200;5.792;2022-09-09T08:02:22;9.70;;;5.30;;
53309;SDS011;39197;53.200;5.792;2022-09-09T08:04:48;6.57;;;5.25;;
53309;SDS011;39197;53.200;5.792;2022-09-09T08:07:14;10.55;;;4.97;;
53309;SDS011;39197;53.200;5.792;2022-09-09T08:09:41;13.73;;;6.43;;
53309;SDS011;39197;53.200;5.792;2022-09-09T08:12:06;6.35;;;5.45;;
53309;SDS011;39197;53.200;5.792;2022-09-09T08:14:33;13.63;;;6.18;;
53309;SDS011;39197;53.200;5.792;2022-09-09T08:16:59;7.57;;;4.05;;
53309;SDS011;39197;53.200;5.792;2022-09-09T08:19:25;5.90;;;4.40;;
53309;SDS011;39197;53.200;5.792;2022-09-09T08:21:50;8.40;;;4.55;;
53309;SDS011;39197;53.200;5.792;2022-09-09T08:24:16;6.80;;;4.38;;
53309;SDS011;39197;53.200;5.792;2022-09-09T08:26:45;6.70;;;3.72;;
53309;SDS011;39197;53.200;5.792;2022-09-09T08:29:13;6.22;;;4.28;;
53309;SDS011;39197;53.200;5.792;2022-09-09T08:31:41;7.07;;;4.10;;
53309;SDS011;39197;53.200;5.792;2022-09-09T08:34:07;8.77;;;4.38;;
53309;SDS011;39197;53.200;5.792;2022-09-09T08:36:44;7.15;;;3.83;;
53309;SDS011;39197;53.200;5.792;2022-09-09T08:39:11;7.72;;;4.75;;
53309;SDS011;39197;53.200;5.792;2022-09-09T08:44:23;6.05;;;3.88;;
53309;SDS011;39197;53.200;5.792;2022-09-09T08:49:59;5.28;;;2.80;;
53309;SDS011;39197;53.200;5.792;2022-09-09T08:53:09;7.03;;;2.92;;
53309;SDS011;39197;53.200;5.792;2022-09-09T08:55:48;6.38;;;2.95;;
53309;SDS011;39197;53.200;5.792;2022-09-09T08:58:20;5.75;;;2.65;;
53309;SDS011;39197;53.200;5.792;2022-09-09T09:01:02;6.78;;;2.70;;
53309;SDS011;39197;53.200;5.792;2022-09-09T09:12:19;7.40;;;2.30;;
53309;SDS011;39197;53.200;5.792;2022-09-09T09:14:48;6.90;;;2.88;;
53309;SDS011;39197;53.200;5.792;2022-09-09T09:17:17;8.23;;;2.42;;
53309;SDS011;39197;53.200;5.792;2022-09-09T09:19:45;7.30;;;2.70;;
53309;SDS011;39197;53.200;5.792;2022-09-09T09:25:15;8.52;;;2.95;;
53309;SDS011;39197;53.200;5.792;2022-09-09T09:27:57;8.30;;;3.45;;
53309;SDS011;39197;53.200;5.792;2022-09-09T09:36:12;5.63;;;2.72;;
53309;SDS011;39197;53.200;5.792;2022-09-09T09:38:40;6.63;;;2.60;;
53309;SDS011;39197;53.200;5.792;2022-09-09T09:41:30;11.13;;;3.15;;
53309;SDS011;39197;53.200;5.792;2022-09-09T09:44:18;6.80;;;2.22;;
53309;SDS011;39197;53.200;5.792;2022-09-09T09:47:05;6.32;;;2.28;;
53309;SDS011;39197;53.200;5.792;2022-09-09T09:49:31;8.25;;;2.88;;
53309;SDS011;39197;53.200;5.792;2022-09-09T09:52:02;5.13;;;1.90;;
53309;SDS011;39197;53.200;5.792;2022-09-09T09:54:38;9.35;;;2.72;;
53309;SDS011;39197;53.200;5.792;2022-09-09T09:57:13;7.82;;;1.70;;
53309;SDS011;39197;53.200;5.792;2022-09-09T09:59:41;7.50;;;2.05;;
53309;SDS011;39197;53.200;5.792;2022-09-09T10:02:21;10.00;;;2.90;;
53309;SDS011;39197;53.200;5.792;2022-09-09T10:05:35;7.50;;;2.03;;
53309;SDS011;39197;53.200;5.792;2022-09-09T10:07:39;6.00;;;1.98;;
53309;SDS011;39197;53.200;5.792;2022-09-09T10:10:05;7.35;;;2.45;;
53309;SDS011;39197;53.200;5.792;2022-09-09T10:12:43;7.28;;;2.45;;
53309;SDS011;39197;53.200;5.792;2022-09-09T10:15:24;9.95;;;1.85;;
53309;SDS011;39197;53.200;5.792;2022-09-09T10:21:02;8.82;;;1.77;;
53309;SDS011;39197;53.200;5.792;2022-09-09T10:29:10;4.93;;;1.35;;
53309;SDS011;39197;53.200;5.792;2022-09-09T10:40:23;8.43;;;1.08;;
53309;SDS011;39197;53.200;5.792;2022-09-09T10:42:56;5.97;;;0.80;;
53309;SDS011;39197;53.200;5.792;2022-09-09T10:48:16;6.45;;;1.58;;
53309;SDS011;39197;53.200;5.792;2022-09-09T10:51:14;7.65;;;1.23;;
53309;SDS011;39197;53.200;5.792;2022-09-09T10:56:31;5.00;;;1.17;;
53309;SDS011;39197;53.200;5.792;2022-09-09T10:59:13;5.20;;;1.02;;
53309;SDS011;39197;53.200;5.792;2022-09-09T11:01:50;6.63;;;1.02;;
53309;SDS011;39197;53.200;5.792;2022-09-09T11:04:39;5.38;;;1.02;;
53309;SDS011;39197;53.200;5.792;2022-09-09T11:07:18;8.70;;;1.88;;
53309;SDS011;39197;53.200;5.792;2022-09-09T11:09:54;7.30;;;1.00;;
53309;SDS011;39197;53.200;5.792;2022-09-09T11:12:27;6.55;;;1.27;;
53309;SDS011;39197;53.200;5.792;2022-09-09T11:14:58;3.97;;;0.70;;
53309;SDS011;39197;53.200;5.792;2022-09-09T11:20:31;6.80;;;1.23;;
53309;SDS011;39197;53.200;5.792;2022-09-09T11:23:02;7.28;;;1.48;;
53309;SDS011;39197;53.200;5.792;2022-09-09T11:25:45;5.97;;;1.90;;
53309;SDS011;39197;53.200;5.792;2022-09-09T11:28:28;6.55;;;0.93;;
53309;SDS011;39197;53.200;5.792;2022-09-09T11:31:19;4.50;;;1.13;;
53309;SDS011;39197;53.200;5.792;2022-09-09T11:42:20;6.78;;;1.40;;
53309;SDS011;39197;53.200;5.792;2022-09-09T11:44:49;6.20;;;0.90;;
53309;SDS011;39197;53.200;5.792;2022-09-09T11:47:26;4.18;;;0.80;;
53309;SDS011;39197;53.200;5.792;2022-09-09T11:50:40;5.22;;;1.02;;
53309;SDS011;39197;53.200;5.792;2022-09-09T11:52:45;6.60;;;1.13;;
53309;SDS011;39197;53.200;5.792;2022-09-09T11:55:25;5.93;;;0.95;;
53309;SDS011;39197;53.200;5.792;2022-09-09T11:58:00;6.22;;;1.15;;
53309;SDS011;39197;53.200;5.792;2022-09-09T12:00:47;4.68;;;1.08;;
53309;SDS011;39197;53.200;5.792;2022-09-09T12:06:20;5.72;;;1.15;;
53309;SDS011;39197;53.200;5.792;2022-09-09T12:09:06;4.32;;;1.00;;
53309;SDS011;39197;53.200;5.792;2022-09-09T12:11:36;4.68;;;0.82;;
53309;SDS011;39197;53.200;5.792;2022-09-09T12:14:02;6.22;;;1.00;;
53309;SDS011;39197;53.200;5.792;2022-09-09T12:16:37;6.82;;;0.88;;
53309;SDS011;39197;53.200;5.792;2022-09-09T12:19:14;5.95;;;1.23;;
53309;SDS011;39197;53.200;5.792;2022-09-09T12:21:51;6.32;;;0.90;;
53309;SDS011;39197;53.200;5.792;2022-09-09T12:27:02;6.68;;;1.20;;
53309;SDS011;39197;53.200;5.792;2022-09-09T12:29:58;6.53;;;1.35;;
53309;SDS011;39197;53.200;5.792;2022-09-09T12:32:29;5.53;;;1.23;;
53309;SDS011;39197;53.200;5.792;2022-09-09T12:34:56;9.00;;;1.67;;
53309;SDS011;39197;53.200;5.792;2022-09-09T12:37:36;8.77;;;1.63;;
53309;SDS011;39197;53.200;5.792;2022-09-09T12:40:03;4.25;;;0.95;;
53309;SDS011;39197;53.200;5.792;2022-09-09T12:42:31;6.43;;;1.58;;
53309;SDS011;39197;53.200;5.792;2022-09-09T12:45:01;7.97;;;1.85;;
53309;SDS011;39197;53.200;5.792;2022-09-09T12:50:10;5.93;;;1.30;;
53309;SDS011;39197;53.200;5.792;2022-09-09T12:52:41;2.50;;;0.80;;
53309;SDS011;39197;53.200;5.792;2022-09-09T12:55:07;5.18;;;1.23;;
53309;SDS011;39197;53.200;5.792;2022-09-09T12:57:43;4.70;;;1.13;;
53309;SDS011;39197;53.200;5.792;2022-09-09T13:00:16;4.35;;;0.90;;
53309;SDS011;39197;53.200;5.792;2022-09-09T13:02:46;9.07;;;1.25;;
53309;SDS011;39197;53.200;5.792;2022-09-09T13:05:18;14.05;;;1.65;;
53309;SDS011;39197;53.200;5.792;2022-09-09T13:07:51;5.60;;;0.82;;
53309;SDS011;39197;53.200;5.792;2022-09-09T13:10:27;3.80;;;0.80;;
53309;SDS011;39197;53.200;5.792;2022-09-09T13:12:55;6.22;;;1.58;;
53309;SDS011;39197;53.200;5.792;2022-09-09T13:15:22;5.43;;;2.30;;
53309;SDS011;39197;53.200;5.792;2022-09-09T13:17:53;4.57;;;0.90;;
53309;SDS011;39197;53.200;5.792;2022-09-09T13:20:21;6.18;;;1.38;;
53309;SDS011;39197;53.200;5.792;2022-09-09T13:22:48;7.90;;;3.00;;
53309;SDS011;39197;53.200;5.792;2022-09-09T13:25:20;3.60;;;1.00;;
53309;SDS011;39197;53.200;5.792;2022-09-09T13:28:03;7.10;;;1.48;;
53309;SDS011;39197;53.200;5.792;2022-09-09T13:33:05;3.72;;;0.60;;
53309;SDS011;39197;53.200;5.792;2022-09-09T13:35:55;5.10;;;0.70;;
53309;SDS011;39197;53.200;5.792;2022-09-09T13:40:53;6.35;;;1.10;;
53309;SDS011;39197;53.200;5.792;2022-09-09T13:43:22;6.85;;;1.48;;
53309;SDS011;39197;53.200;5.792;2022-09-09T13:45:57;5.15;;;0.98;;
53309;SDS011;39197;53.200;5.792;2022-09-09T13:48:27;5.57;;;0.40;;
53309;SDS011;39197;53.200;5.792;2022-09-09T13:50:53;1.65;;;0.10;;
53309;SDS011;39197;53.200;5.792;2022-09-09T13:53:20;2.38;;;0.40;;
53309;SDS011;39197;53.200;5.792;2022-09-09T13:55:45;2.22;;;0.60;;
53309;SDS011;39197;53.200;5.792;2022-09-09T13:58:15;6.18;;;0.93;;
53309;SDS011;39197;53.200;5.792;2022-09-09T14:00:45;4.30;;;1.13;;
53309;SDS011;39197;53.200;5.792;2022-09-09T14:03:11;4.00;;;1.02;;
53309;SDS011;39197;53.200;5.792;2022-09-09T14:05:37;2.47;;;0.77;;
53309;SDS011;39197;53.200;5.792;2022-09-09T14:08:06;3.30;;;0.98;;
53309;SDS011;39197;53.200;5.792;2022-09-09T14:10:38;3.80;;;0.90;;
53309;SDS011;39197;53.200;5.792;2022-09-09T14:13:04;4.03;;;1.00;;
53309;SDS011;39197;53.200;5.792;2022-09-09T14:15:29;4.68;;;1.10;;
53309;SDS011;39197;53.200;5.792;2022-09-09T14:17:55;3.78;;;0.70;;
53309;SDS011;39197;53.200;5.792;2022-09-09T14:20:21;3.53;;;0.65;;
53309;SDS011;39197;53.200;5.792;2022-09-09T14:22:46;4.03;;;0.70;;
53309;SDS011;39197;53.200;5.792;2022-09-09T14:25:12;5.22;;;0.95;;
53309;SDS011;39197;53.200;5.792;2022-09-09T14:27:38;2.60;;;0.73;;
53309;SDS011;39197;53.200;5.792;2022-09-09T14:30:05;5.57;;;0.75;;
53309;SDS011;39197;53.200;5.792;2022-09-09T14:32:32;3.83;;;1.30;;
53309;SDS011;39197;53.200;5.792;2022-09-09T14:34:58;4.03;;;0.55;;
53309;SDS011;39197;53.200;5.792;2022-09-09T14:37:23;3.63;;;1.38;;
53309;SDS011;39197;53.200;5.792;2022-09-09T14:39:49;5.75;;;2.38;;
53309;SDS011;39197;53.200;5.792;2022-09-09T14:42:15;4.32;;;1.15;;
53309;SDS011;39197;53.200;5.792;2022-09-09T14:44:41;2.80;;;0.70;;
53309;SDS011;39197;53.200;5.792;2022-09-09T14:47:07;5.70;;;1.13;;
53309;SDS011;39197;53.200;5.792;2022-09-09T14:49:34;4.18;;;0.95;;
53309;SDS011;39197;53.200;5.792;2022-09-09T14:52:00;6.50;;;0.90;;
53309;SDS011;39197;53.200;5.792;2022-09-09T14:54:26;3.33;;;0.73;;
53309;SDS011;39197;53.200;5.792;2022-09-09T14:56:51;4.60;;;1.00;;
53309;SDS011;39197;53.200;5.792;2022-09-09T14:59:17;3.38;;;0.75;;
53309;SDS011;39197;53.200;5.792;2022-09-09T15:01:42;5.53;;;0.80;;
53309;SDS011;39197;53.200;5.792;2022-09-09T15:04:10;2.70;;;0.47;;
53309;SDS011;39197;53.200;5.792;2022-09-09T15:06:37;1.77;;;0.73;;
53309;SDS011;39197;53.200;5.792;2022-09-09T15:09:04;4.32;;;1.00;;
53309;SDS011;39197;53.200;5.792;2022-09-09T15:11:31;3.00;;;1.02;;
53309;SDS011;39197;53.200;5.792;2022-09-09T15:14:02;4.15;;;1.58;;
53309;SDS011;39197;53.200;5.792;2022-09-09T15:16:29;5.57;;;2.00;;
53309;SDS011;39197;53.200;5.792;2022-09-09T15:18:55;6.03;;;2.00;;
53309;SDS011;39197;53.200;5.792;2022-09-09T15:21:23;5.70;;;1.15;;
53309;SDS011;39197;53.200;5.792;2022-09-09T15:23:50;6.60;;;1.40;;
53309;SDS011;39197;53.200;5.792;2022-09-09T15:26:16;3.78;;;1.23;;
53309;SDS011;39197;53.200;5.792;2022-09-09T15:28:43;6.47;;;1.25;;
53309;SDS011;39197;53.200;5.792;2022-09-09T15:33:52;7.60;;;2.55;;
53309;SDS011;39197;53.200;5.792;2022-09-09T15:36:23;7.10;;;2.63;;
53309;SDS011;39197;53.200;5.792;2022-09-09T15:38:50;5.47;;;2.85;;
53309;SDS011;39197;53.200;5.792;2022-09-09T15:41:17;5.53;;;3.17;;
53309;SDS011;39197;53.200;5.792;2022-09-09T15:43:45;5.78;;;3.45;;
53309;SDS011;39197;53.200;5.792;2022-09-09T15:49:14;7.88;;;3.22;;
53309;SDS011;39197;53.200;5.792;2022-09-09T15:51:43;7.57;;;5.32;;
53309;SDS011;39197;53.200;5.792;2022-09-09T15:54:11;9.57;;;3.97;;
53309;SDS011;39197;53.200;5.792;2022-09-09T15:56:39;11.98;;;5.07;;
53309;SDS011;39197;53.200;5.792;2022-09-09T15:59:05;6.35;;;3.35;;
53309;SDS011;39197;53.200;5.792;2022-09-09T16:01:31;8.77;;;5.20;;
53309;SDS011;39197;53.200;5.792;2022-09-09T16:03:57;8.27;;;4.28;;
53309;SDS011;39197;53.200;5.792;2022-09-09T16:06:25;5.75;;;3.42;;
53309;SDS011;39197;53.200;5.792;2022-09-09T16:08:53;7.15;;;3.67;;
53309;SDS011;39197;53.200;5.792;2022-09-09T16:11:21;7.70;;;3.53;;
53309;SDS011;39197;53.200;5.792;2022-09-09T16:13:52;7.78;;;3.80;;
53309;SDS011;39197;53.200;5.792;2022-09-09T16:16:20;6.28;;;2.95;;
53309;SDS011;39197;53.200;5.792;2022-09-09T16:18:48;5.65;;;3.50;;
53309;SDS011;39197;53.200;5.792;2022-09-09T16:21:28;5.53;;;2.80;;
53309;SDS011;39197;53.200;5.792;2022-09-09T16:23:56;5.97;;;3.20;;
53309;SDS011;39197;53.200;5.792;2022-09-09T16:26:24;5.53;;;2.83;;
53309;SDS011;39197;53.200;5.792;2022-09-09T16:28:50;5.60;;;2.88;;
53309;SDS011;39197;53.200;5.792;2022-09-09T16:31:19;4.40;;;3.08;;
53309;SDS011;39197;53.200;5.792;2022-09-09T16:33:46;5.03;;;2.95;;
53309;SDS011;39197;53.200;5.792;2022-09-09T16:36:13;5.85;;;4.00;;
53309;SDS011;39197;53.200;5.792;2022-09-09T16:38:40;4.40;;;2.50;;
53309;SDS011;39197;53.200;5.792;2022-09-09T16:41:08;8.77;;;4.25;;
53309;SDS011;39197;53.200;5.792;2022-09-09T16:43:35;3.53;;;2.92;;
53309;SDS011;39197;53.200;5.792;2022-09-09T16:46:02;3.50;;;2.25;;
53309;SDS011;39197;53.200;5.792;2022-09-09T16:48:36;5.40;;;1.50;;
53309;SDS011;39197;53.200;5.792;2022-09-09T16:51:05;4.30;;;1.95;;